Time;durP1;ratioP1;P1;durP2;ratioP2;P2;SDS_P1;SDS_P2;PMS_P1;PMS_P2;Temp;Humidity;BMP_temperature;BMP_pressure;BME280_temperature;BME280_humidity;BME280_pressure;Samples;Min_cycle;Max_cycle;Signal;HPM_P1;HPM_P2
2022/07/29 04:01:30;;;;;;;4.83;2.73;;;13.50;96.30;;;;;;5505792;23;20508;-77
2022/07/29 04:03:56;;;;;;;15.90;2.60;;;14.10;96.30;;;;;;4985598;28;20436;-76
2022/07/29 04:06:21;;;;;;;8.70;2.57;;;14.70;96.30;;;;;;4997676;28;20787;-76
2022/07/29 04:08:47;;;;;;;8.73;2.83;;;14.90;96.30;;;;;;5003374;28;20185;-78
2022/07/29 04:11:13;;;;;;;6.77;2.50;;;15.00;96.30;;;;;;4990834;28;20622;-78
2022/07/29 04:13:38;;;;;;;6.10;2.40;;;15.20;96.30;;;;;;4991282;28;20213;-77
2022/07/29 04:16:04;;;;;;;9.70;3.13;;;15.10;96.30;;;;;;4980588;28;20642;-77
2022/07/29 04:18:29;;;;;;;10.03;3.13;;;15.00;96.30;;;;;;4973599;28;20186;-76
2022/07/29 04:20:55;;;;;;;11.13;2.97;;;14.80;96.30;;;;;;4973818;28;20190;-78
2022/07/29 04:23:20;;;;;;;5.50;3.00;;;14.80;96.30;;;;;;4972620;28;20622;-77
2022/07/29 04:25:46;;;;;;;7.90;3.10;;;14.80;96.30;;;;;;4973434;28;20182;-77
2022/07/29 04:28:11;;;;;;;6.07;2.90;;;14.80;96.30;;;;;;4973162;28;20236;-77
2022/07/29 04:30:37;;;;;;;4.83;2.70;;;14.90;96.30;;;;;;4973070;28;20737;-78
2022/07/29 04:33:05;;;;;;;4.20;2.63;;;14.90;96.30;;;;;;4976715;28;20213;-79
2022/07/29 04:35:34;;;;;;;5.37;2.70;;;15.00;96.30;;;;;;4975824;28;20418;-76
2022/07/29 04:38:00;;;;;;;11.70;2.70;;;15.00;96.30;;;;;;4976687;28;20417;-76
2022/07/29 04:40:25;;;;;;;5.63;3.20;;;15.00;96.30;;;;;;4983723;28;20416;-77
2022/07/29 04:42:51;;;;;;;9.73;2.93;;;15.10;96.30;;;;;;4996240;28;20538;-76
2022/07/29 04:45:16;;;;;;;5.10;2.63;;;15.20;96.30;;;;;;4995161;28;20170;-76
2022/07/29 04:47:42;;;;;;;4.43;2.90;;;15.20;96.30;;;;;;4995878;28;20177;-76
2022/07/29 04:50:09;;;;;;;4.93;3.00;;;15.20;96.30;;;;;;4995803;28;20280;-77
2022/07/29 04:52:35;;;;;;;6.40;3.23;;;15.20;96.30;;;;;;4996072;28;20194;-76
2022/07/29 04:55:00;;;;;;;6.60;3.33;;;15.20;96.30;;;;;;4993450;28;20436;-76
2022/07/29 04:57:26;;;;;;;4.60;3.27;;;15.40;96.30;;;;;;4976282;28;20178;-76
2022/07/29 04:59:51;;;;;;;4.50;3.70;;;15.60;96.30;;;;;;4973206;28;20189;-77
2022/07/29 05:02:17;;;;;;;4.60;3.00;;;15.90;96.30;;;;;;4976691;28;20217;-77
2022/07/29 05:04:42;;;;;;;12.63;3.50;;;16.20;96.30;;;;;;4991455;28;20657;-77
2022/07/29 05:07:08;;;;;;;5.10;3.10;;;16.50;96.30;;;;;;4976558;28;20174;-76
2022/07/29 05:09:33;;;;;;;7.70;3.67;;;16.40;96.30;;;;;;4984307;28;20173;-76
2022/07/29 05:11:59;;;;;;;11.50;4.03;;;16.40;96.30;;;;;;4995671;28;20208;-76
2022/07/29 05:14:24;;;;;;;5.20;3.17;;;16.60;96.30;;;;;;4994557;28;20239;-77
2022/07/29 05:16:50;;;;;;;3.97;3.33;;;16.70;96.30;;;;;;4995670;28;20173;-76
2022/07/29 05:19:16;;;;;;;5.47;2.77;;;16.70;96.30;;;;;;4995514;28;20173;-77
2022/07/29 05:21:42;;;;;;;7.83;3.23;;;16.80;96.30;;;;;;4995393;28;20559;-77
2022/07/29 05:24:08;;;;;;;3.50;2.67;;;16.90;96.30;;;;;;4995448;28;20774;-77
2022/07/29 05:26:33;;;;;;;6.60;2.97;;;17.10;96.30;;;;;;4995450;28;20181;-75
2022/07/29 05:28:59;;;;;;;10.03;2.80;;;17.20;96.30;;;;;;4990849;28;21760;-75
2022/07/29 05:31:24;;;;;;;7.07;3.60;;;17.30;96.30;;;;;;4979213;28;20209;-75
2022/07/29 05:33:50;;;;;;;4.90;3.13;;;17.20;96.30;;;;;;4985959;28;20193;-75
2022/07/29 05:36:15;;;;;;;4.13;3.40;;;17.00;96.30;;;;;;4993339;28;20170;-75
2022/07/29 05:38:41;;;;;;;7.50;3.13;;;16.90;96.30;;;;;;4992738;28;20345;-78
2022/07/29 05:41:06;;;;;;;5.70;2.63;;;16.80;96.30;;;;;;4987943;28;20242;-77
2022/07/29 05:43:32;;;;;;;6.80;3.13;;;17.00;96.30;;;;;;4993283;28;20265;-79
2022/07/29 05:45:57;;;;;;;3.77;2.90;;;17.20;96.30;;;;;;4975753;28;20552;-78
2022/07/29 05:48:23;;;;;;;4.83;2.80;;;17.20;96.30;;;;;;4973324;28;20995;-78
2022/07/29 05:50:49;;;;;;;10.73;2.93;;;17.30;96.30;;;;;;4961024;28;20198;-78
2022/07/29 05:53:14;;;;;;;7.47;3.40;;;17.20;96.30;;;;;;4961535;28;20198;-78
2022/07/29 05:55:40;;;;;;;3.57;2.67;;;17.00;96.30;;;;;;4967989;28;20217;-78
2022/07/29 05:58:05;;;;;;;7.33;3.13;;;16.90;96.30;;;;;;4972307;28;20182;-78
2022/07/29 06:00:31;;;;;;;6.50;2.00;;;17.00;96.30;;;;;;4972023;28;20242;-79
2022/07/29 06:02:56;;;;;;;5.60;2.37;;;17.20;96.30;;;;;;4971667;28;20573;-78
2022/07/29 06:05:22;;;;;;;4.07;2.27;;;17.50;96.30;;;;;;4984124;28;20261;-78
2022/07/29 06:07:48;;;;;;;6.20;2.67;;;17.70;96.30;;;;;;4974647;28;20556;-80
2022/07/29 06:10:14;;;;;;;5.13;2.50;;;17.70;96.30;;;;;;4989805;28;20511;-77
2022/07/29 06:12:39;;;;;;;7.47;2.73;;;17.70;96.30;;;;;;4986680;28;20703;-77
2022/07/29 06:15:05;;;;;;;4.50;2.50;;;17.90;96.30;;;;;;4978369;28;20557;-79
2022/07/29 06:17:31;;;;;;;4.53;2.40;;;17.90;96.30;;;;;;4977961;28;20262;-78
2022/07/29 06:19:57;;;;;;;5.50;2.67;;;18.10;96.30;;;;;;4977349;28;20505;-78
2022/07/29 06:22:22;;;;;;;6.87;3.20;;;18.20;96.30;;;;;;4975544;28;20264;-78
2022/07/29 06:24:48;;;;;;;5.23;3.00;;;18.30;96.30;;;;;;4978125;28;20191;-78
2022/07/29 06:27:13;;;;;;;5.20;2.93;;;18.30;96.30;;;;;;4990834;28;20194;-78
2022/07/29 06:29:39;;;;;;;14.40;3.37;;;18.10;96.30;;;;;;4978597;28;20197;-79
2022/07/29 06:32:05;;;;;;;6.63;2.60;;;18.30;96.30;;;;;;4983712;28;20285;-77
2022/07/29 06:34:30;;;;;;;9.43;2.80;;;18.40;96.30;;;;;;4971194;28;20201;-77
2022/07/29 06:36:56;;;;;;;10.10;2.50;;;18.50;96.30;;;;;;4957726;28;20182;-78
2022/07/29 06:39:21;;;;;;;8.07;2.53;;;18.60;96.30;;;;;;4961819;28;20182;-78
2022/07/29 06:41:51;;;;;;;4.37;1.97;;;18.70;96.30;;;;;;4970051;28;20206;-78
2022/07/29 06:44:17;;;;;;;7.00;3.00;;;18.80;96.30;;;;;;4955419;28;20553;-78
2022/07/29 06:46:43;;;;;;;3.07;2.40;;;18.80;96.30;;;;;;4966210;28;20776;-78
2022/07/29 06:49:09;;;;;;;5.93;2.77;;;19.10;96.30;;;;;;4973759;28;20425;-78
2022/07/29 06:51:35;;;;;;;4.40;2.37;;;19.30;96.30;;;;;;4985249;28;20451;-78
2022/07/29 06:54:01;;;;;;;8.97;2.73;;;19.40;96.00;;;;;;4993619;28;20830;-78
2022/07/29 06:56:27;;;;;;;6.50;2.80;;;19.40;96.30;;;;;;4993172;28;20425;-79
2022/07/29 06:58:52;;;;;;;6.43;2.50;;;19.50;95.70;;;;;;4983129;28;20200;-78
2022/07/29 07:01:18;;;;;;;9.63;2.30;;;19.60;95.90;;;;;;4987225;28;20214;-78
2022/07/29 07:03:43;;;;;;;5.77;2.40;;;19.70;96.30;;;;;;4974371;28;20232;-78
2022/07/29 07:06:09;;;;;;;3.93;2.40;;;19.50;96.30;;;;;;4974369;28;20175;-79
2022/07/29 07:08:34;;;;;;;9.00;2.63;;;19.40;96.30;;;;;;4973976;28;20264;-78
2022/07/29 07:11:00;;;;;;;7.40;2.83;;;19.50;96.30;;;;;;4974113;28;20209;-78
2022/07/29 07:13:26;;;;;;;4.37;2.20;;;19.60;96.30;;;;;;4974236;28;20277;-79
2022/07/29 07:15:51;;;;;;;6.93;2.93;;;19.50;96.30;;;;;;4974145;28;20254;-79
2022/07/29 07:18:18;;;;;;;3.77;1.70;;;19.60;95.90;;;;;;4971495;28;20678;-78
2022/07/29 07:20:44;;;;;;;4.10;2.23;;;19.70;95.20;;;;;;4974232;28;20191;-77
2022/07/29 07:23:10;;;;;;;4.30;2.00;;;19.90;94.30;;;;;;4974222;28;20418;-80
2022/07/29 07:25:36;;;;;;;6.03;2.10;;;19.90;94.30;;;;;;4974295;28;20437;-80
2022/07/29 07:28:02;;;;;;;10.80;2.90;;;20.20;93.00;;;;;;4993323;28;20401;-78
2022/07/29 07:30:27;;;;;;;6.07;2.73;;;20.20;92.10;;;;;;4977594;28;20178;-78
2022/07/29 07:32:53;;;;;;;4.40;2.33;;;20.10;93.30;;;;;;4985084;28;20649;-79
2022/07/29 07:35:19;;;;;;;8.97;2.70;;;20.30;93.90;;;;;;4972589;28;20197;-80
2022/07/29 07:37:44;;;;;;;7.73;2.33;;;20.50;94.00;;;;;;4958452;28;20471;-79
2022/07/29 07:40:14;;;;;;;6.20;2.27;;;20.70;92.40;;;;;;4958157;28;20221;-79
2022/07/29 07:42:40;;;;;;;6.20;2.23;;;20.60;90.90;;;;;;4973588;28;20265;-78
2022/07/29 07:45:09;;;;;;;12.90;2.50;;;20.80;91.60;;;;;;4972531;28;20913;-79
2022/07/29 07:47:35;;;;;;;8.07;3.27;;;20.90;91.50;;;;;;4973752;28;20420;-78
2022/07/29 07:50:00;;;;;;;3.20;2.20;;;21.40;90.70;;;;;;4975175;28;20426;-79
2022/07/29 07:52:26;;;;;;;7.33;2.57;;;21.60;88.90;;;;;;4963507;28;21203;-78
2022/07/29 07:54:51;;;;;;;5.93;2.10;;;21.50;88.70;;;;;;4973449;28;20233;-79
2022/07/29 07:57:17;;;;;;;6.83;3.07;;;21.70;88.50;;;;;;4973609;28;20172;-80
2022/07/29 07:59:42;;;;;;;3.03;2.00;;;21.80;88.80;;;;;;4972950;28;20252;-78
2022/07/29 08:02:09;;;;;;;3.80;2.40;;;22.20;88.80;;;;;;4979318;28;20336;-79
2022/07/29 08:04:35;;;;;;;8.90;2.43;;;22.00;87.30;;;;;;4985318;28;20228;-78
2022/07/29 08:07:01;;;;;;;3.43;2.10;;;22.10;88.70;;;;;;4992618;28;20842;-79
2022/07/29 08:09:28;;;;;;;8.03;2.60;;;22.40;87.70;;;;;;4992738;28;20397;-78
2022/07/29 08:11:54;;;;;;;5.67;2.33;;;23.10;86.20;;;;;;4992617;28;20460;-79
2022/07/29 08:14:20;;;;;;;5.20;2.40;;;23.70;84.10;;;;;;4992715;28;20858;-78
2022/07/29 08:16:46;;;;;;;6.13;2.30;;;24.40;83.30;;;;;;4973638;28;20445;-79
2022/07/29 08:19:11;;;;;;;6.60;2.23;;;24.70;81.60;;;;;;4972954;28;20232;-78
2022/07/29 08:21:37;;;;;;;4.97;2.03;;;24.40;82.00;;;;;;4973281;28;20911;-79
2022/07/29 08:26:49;;;;;;;3.70;2.17;;;24.30;80.60;;;;;;4973576;28;20445;-80
2022/07/29 08:29:14;;;;;;;7.97;2.40;;;24.00;80.30;;;;;;4972776;28;20865;-79
2022/07/29 08:31:40;;;;;;;4.40;2.10;;;23.70;82.60;;;;;;4973023;28;20469;-78
2022/07/29 08:34:05;;;;;;;9.47;2.17;;;23.70;81.70;;;;;;4973169;28;20174;-79
2022/07/29 08:36:32;;;;;;;11.07;2.67;;;23.60;83.70;;;;;;4972906;28;20665;-79
2022/07/29 08:38:59;;;;;;;2.63;2.27;;;23.40;82.70;;;;;;4973437;28;20229;-79
2022/07/29 08:41:25;;;;;;;5.10;2.03;;;23.70;82.90;;;;;;4983034;28;20441;-78
2022/07/29 08:43:51;;;;;;;6.10;2.73;;;24.60;80.00;;;;;;4992562;28;20495;-80
2022/07/29 08:46:17;;;;;;;6.00;2.67;;;26.00;78.80;;;;;;4992418;28;20216;-79
2022/07/29 08:48:43;;;;;;;3.67;1.97;;;26.50;75.10;;;;;;4982232;28;20786;-79
2022/07/29 08:51:13;;;;;;;4.23;2.20;;;26.40;75.30;;;;;;4964808;28;20445;-79
2022/07/29 08:53:42;;;;;;;4.27;2.67;;;25.70;76.30;;;;;;4958523;28;20221;-79
2022/07/29 08:56:11;;;;;;;9.33;2.50;;;25.70;77.10;;;;;;4959130;28;20457;-78
2022/07/29 08:58:37;;;;;;;13.90;2.10;;;26.00;76.70;;;;;;4967541;28;20401;-79
2022/07/29 09:01:03;;;;;;;10.73;2.67;;;26.60;75.40;;;;;;4973322;28;20461;-77
2022/07/29 09:03:34;;;;;;;3.60;2.43;;;27.60;75.00;;;;;;4963136;28;20817;-79
2022/07/29 09:06:01;;;;;;;6.03;2.63;;;27.70;73.10;;;;;;4958025;28;20193;-79
2022/07/29 09:08:27;;;;;;;3.73;2.03;;;27.60;72.90;;;;;;4968742;28;20413;-79
2022/07/29 09:10:55;;;;;;;13.30;2.50;;;28.20;72.40;;;;;;4980668;28;20468;-79
2022/07/29 09:13:21;;;;;;;5.63;2.03;;;28.50;70.60;;;;;;4977906;28;20469;-80
2022/07/29 09:15:47;;;;;;;8.53;2.77;;;28.00;71.30;;;;;;4976326;28;20464;-79
2022/07/29 09:18:32;;;;;;;5.57;2.30;;;27.30;72.80;;;;;;4977592;28;20417;-79
2022/07/29 09:24:07;;;;;;;5.13;2.50;;;26.70;75.00;;;;;;4985025;28;20791;-79
2022/07/29 09:26:34;;;;;;;3.47;2.37;;;27.60;73.90;;;;;;4981498;28;20504;-79
2022/07/29 09:29:17;;;;;;;6.77;2.80;;;28.50;70.80;;;;;;4991428;28;20442;-79
2022/07/29 09:31:45;;;;;;;3.70;2.00;;;28.80;70.20;;;;;;4986883;28;20821;-78
2022/07/29 09:34:12;;;;;;;3.97;2.70;;;28.90;70.30;;;;;;4980198;28;20868;-79
2022/07/29 09:36:46;;;;;;;4.87;2.50;;;28.40;69.50;;;;;;4980727;28;20892;-79
2022/07/29 09:39:12;;;;;;;6.10;2.37;;;28.00;69.90;;;;;;4978914;28;20428;-80
2022/07/29 09:42:04;;;;;;;4.67;2.13;;;27.90;71.10;;;;;;4998361;28;20440;-80
2022/07/29 09:44:49;;;;;;;11.03;2.23;;;27.90;71.20;;;;;;4999634;28;20532;-79
2022/07/29 09:47:18;;;;;;;21.43;3.03;;;28.10;70.80;;;;;;5000871;28;20439;-79
2022/07/29 09:50:10;;;;;;;9.00;2.20;;;28.00;70.60;;;;;;4999549;28;20428;-79
2022/07/29 09:52:46;;;;;;;6.73;2.60;;;28.40;69.50;;;;;;4997276;28;20463;-78
2022/07/29 09:55:12;;;;;;;3.00;2.07;;;27.60;70.50;;;;;;4987270;28;20424;-80
2022/07/29 09:57:37;;;;;;;9.57;2.33;;;27.80;69.00;;;;;;4987187;28;20427;-79
2022/07/29 10:00:09;;;;;;;7.73;2.60;;;27.90;70.00;;;;;;5001010;28;20673;-80
2022/07/29 10:02:37;;;;;;;3.33;2.40;;;28.10;70.60;;;;;;4996658;28;20220;-79
2022/07/29 10:05:05;;;;;;;5.77;2.50;;;28.00;69.80;;;;;;4964065;28;20972;-79
2022/07/29 10:07:46;;;;;;;6.83;2.20;;;28.10;69.10;;;;;;4962757;28;20439;-80
2022/07/29 10:10:37;;;;;;;3.03;2.33;;;28.10;68.40;;;;;;4969113;28;20448;-79
2022/07/29 10:13:06;;;;;;;5.17;2.43;;;27.90;69.10;;;;;;4986605;28;20471;-79
2022/07/29 10:15:40;;;;;;;3.10;1.93;;;28.10;68.80;;;;;;4991496;28;20455;-79
2022/07/29 10:18:07;;;;;;;6.17;2.53;;;28.20;68.60;;;;;;4989714;28;20421;-79
2022/07/29 10:20:33;;;;;;;8.33;2.47;;;28.30;69.00;;;;;;4995801;28;20472;-79
2022/07/29 10:22:58;;;;;;;4.77;1.73;;;28.20;70.00;;;;;;4989804;28;20417;-80
2022/07/29 10:25:25;;;;;;;9.43;2.60;;;29.00;67.80;;;;;;4988752;28;20959;-79
2022/07/29 10:27:51;;;;;;;8.53;2.43;;;29.10;67.60;;;;;;4985326;28;20181;-79
2022/07/29 10:38:40;;;;;;;4.73;2.40;;;28.80;68.30;;;;;;5973908;23;20862;-78
2022/07/29 10:41:27;;;;;;;5.30;2.40;;;29.00;68.80;;;;;;4980290;28;20457;-78
2022/07/29 10:44:00;;;;;;;4.00;2.60;;;28.70;68.10;;;;;;4973050;28;20413;-78
2022/07/29 10:46:27;;;;;;;3.73;2.33;;;28.70;68.50;;;;;;4979353;28;20428;-78
2022/07/29 10:49:11;;;;;;;4.03;2.50;;;29.00;68.60;;;;;;4974101;28;20492;-78
2022/07/29 10:52:02;;;;;;;16.57;2.40;;;29.10;67.50;;;;;;4976389;28;20512;-79
2022/07/29 10:57:21;;;;;;;7.77;2.33;;;29.50;66.80;;;;;;4981844;28;20459;-78
2022/07/29 10:59:51;;;;;;;3.97;2.27;;;29.40;66.60;;;;;;4964605;28;20404;-80
2022/07/29 11:02:35;;;;;;;3.10;2.27;;;28.90;67.60;;;;;;4959489;28;20445;-79
2022/07/29 11:05:01;;;;;;;8.07;2.60;;;29.20;67.70;;;;;;4959706;28;20420;-78
2022/07/29 11:07:29;;;;;;;4.50;2.37;;;29.10;66.70;;;;;;4966961;28;20420;-78
2022/07/29 11:10:12;;;;;;;3.70;2.37;;;29.00;67.90;;;;;;4974189;28;20189;-78
2022/07/29 11:12:38;;;;;;;3.53;1.90;;;29.10;67.60;;;;;;4974199;28;20452;-79
2022/07/29 11:15:05;;;;;;;4.03;2.60;;;29.30;66.50;;;;;;4987714;28;21200;-77
2022/07/29 11:17:53;;;;;;;9.90;2.30;;;29.20;67.20;;;;;;4984856;28;20173;-77
2022/07/29 11:20:45;;;;;;;2.37;2.00;;;29.50;66.20;;;;;;4993952;28;20492;-79
2022/07/29 11:23:23;;;;;;;4.17;2.27;;;28.90;66.40;;;;;;4987519;28;20414;-77
2022/07/29 11:26:10;;;;;;;3.77;1.73;;;29.00;66.30;;;;;;4974157;28;20775;-77
2022/07/29 11:28:48;;;;;;;5.47;2.20;;;28.50;66.80;;;;;;4983515;28;20422;-77
2022/07/29 11:31:16;;;;;;;4.93;2.13;;;28.20;68.30;;;;;;4992127;28;21017;-77
2022/07/29 11:33:42;;;;;;;8.50;2.13;;;28.40;68.00;;;;;;4983045;28;20890;-78
2022/07/29 11:36:12;;;;;;;7.73;2.23;;;29.10;67.30;;;;;;4973979;28;20449;-78
2022/07/29 11:38:37;;;;;;;2.87;1.93;;;29.70;66.70;;;;;;4973562;28;20607;-76
2022/07/29 11:41:25;;;;;;;7.10;2.00;;;29.90;65.50;;;;;;4973163;28;20437;-76
2022/07/29 11:43:58;;;;;;;6.87;1.80;;;29.80;64.70;;;;;;4972431;28;20181;-76
2022/07/29 11:46:48;;;;;;;5.53;1.73;;;29.30;66.40;;;;;;4972969;28;21041;-77
2022/07/29 11:49:22;;;;;;;2.80;1.83;;;29.80;66.30;;;;;;4986805;28;20464;-78
2022/07/29 11:51:56;;;;;;;4.53;2.37;;;29.10;65.00;;;;;;4993031;28;20951;-79
2022/07/29 11:54:30;;;;;;;3.33;1.93;;;28.30;66.70;;;;;;4980594;28;20417;-78
2022/07/29 11:56:57;;;;;;;4.07;1.97;;;27.40;68.00;;;;;;4973721;28;21065;-77
2022/07/29 11:59:24;;;;;;;11.03;2.10;;;27.40;68.50;;;;;;4973539;28;20766;-80
2022/07/29 12:01:54;;;;;;;3.33;2.07;;;27.50;69.50;;;;;;4980432;28;20484;-79
2022/07/29 12:04:19;;;;;;;6.23;2.03;;;27.20;69.30;;;;;;4981814;28;20793;-77
2022/07/29 12:06:54;;;;;;;9.60;2.23;;;27.40;68.90;;;;;;4992801;28;20409;-77
2022/07/29 12:09:21;;;;;;;6.30;2.30;;;27.40;69.50;;;;;;4992669;28;20232;-76
2022/07/29 12:11:47;;;;;;;7.43;1.97;;;27.20;69.40;;;;;;4993548;28;20444;-79
2022/07/29 12:14:30;;;;;;;7.63;2.13;;;26.90;69.50;;;;;;4988639;28;20433;-79
2022/07/29 12:16:57;;;;;;;2.33;1.67;;;26.90;69.90;;;;;;4978279;28;20503;-76
2022/07/29 12:19:23;;;;;;;9.60;2.13;;;27.00;69.50;;;;;;4973080;28;20433;-78
2022/07/29 12:21:51;;;;;;;4.67;2.03;;;27.30;70.60;;;;;;4975263;28;20475;-78
2022/07/29 12:24:18;;;;;;;7.37;2.00;;;27.50;69.00;;;;;;4971466;28;20190;-78
2022/07/29 12:26:57;;;;;;;4.70;2.53;;;27.60;69.00;;;;;;4973612;28;20434;-78
2022/07/29 12:29:23;;;;;;;11.30;2.10;;;27.30;69.70;;;;;;4973717;28;20481;-77
2022/07/29 12:31:53;;;;;;;10.93;2.23;;;26.90;69.70;;;;;;4972325;28;20441;-76
2022/07/29 12:34:22;;;;;;;5.33;2.17;;;26.80;70.70;;;;;;4972018;28;20248;-76
2022/07/29 12:36:49;;;;;;;7.77;2.07;;;27.00;70.20;;;;;;4972178;28;20409;-76
2022/07/29 12:39:16;;;;;;;3.03;2.30;;;27.20;70.40;;;;;;4972035;28;20568;-76
2022/07/29 12:41:42;;;;;;;10.00;1.97;;;27.20;69.50;;;;;;4974643;28;20445;-77
2022/07/29 12:44:08;;;;;;;5.17;2.10;;;27.50;70.00;;;;;;4972882;28;20491;-76
2022/07/29 12:46:34;;;;;;;4.73;2.37;;;27.60;69.70;;;;;;4973145;28;20932;-76
2022/07/29 12:48:59;;;;;;;4.33;2.10;;;27.60;68.80;;;;;;4970624;28;20306;-76
2022/07/29 12:51:33;;;;;;;3.13;2.20;;;27.00;70.20;;;;;;4968085;28;20562;-76
2022/07/29 12:54:08;;;;;;;7.20;2.83;;;27.40;69.60;;;;;;4966539;28;20291;-76
2022/07/29 12:56:34;;;;;;;6.23;2.70;;;27.30;69.70;;;;;;4973588;28;20422;-76
2022/07/29 12:58:59;;;;;;;3.20;1.80;;;27.50;69.40;;;;;;4978102;28;20499;-75
2022/07/29 13:01:27;;;;;;;7.60;2.17;;;27.70;68.50;;;;;;4996525;28;20213;-78
2022/07/29 13:03:59;;;;;;;13.63;2.53;;;28.00;69.10;;;;;;4996428;28;20173;-75
2022/07/29 13:06:44;;;;;;;5.30;2.33;;;27.90;68.40;;;;;;4987430;28;20432;-76
2022/07/29 13:09:15;;;;;;;4.90;1.93;;;27.90;68.10;;;;;;4975352;28;20518;-75
2022/07/29 13:11:46;;;;;;;4.67;2.20;;;27.90;69.30;;;;;;4969799;28;20523;-76
2022/07/29 13:14:28;;;;;;;4.70;2.27;;;28.00;69.80;;;;;;4964919;28;20456;-77
2022/07/29 13:17:22;;;;;;;10.43;2.10;;;28.20;68.90;;;;;;4974236;28;20512;-78
2022/07/29 13:20:14;;;;;;;7.80;2.30;;;28.60;67.10;;;;;;4972509;28;20424;-75
2022/07/29 13:22:42;;;;;;;1.90;1.80;;;29.10;67.00;;;;;;4966521;28;20501;-78
2022/07/29 13:25:08;;;;;;;6.83;1.80;;;28.80;66.40;;;;;;4973568;28;20503;-78
2022/07/29 13:27:36;;;;;;;5.87;2.37;;;28.90;67.50;;;;;;4976003;28;20992;-79
2022/07/29 13:30:04;;;;;;;4.57;1.97;;;29.00;66.70;;;;;;4976250;28;20437;-79
2022/07/29 13:32:31;;;;;;;3.27;2.40;;;29.30;66.10;;;;;;4975060;28;20475;-79
2022/07/29 13:34:59;;;;;;;2.33;1.90;;;29.40;65.30;;;;;;4976267;28;20452;-79
2022/07/29 13:37:26;;;;;;;5.67;2.40;;;29.30;65.10;;;;;;4976507;28;20893;-79
2022/07/29 13:39:52;;;;;;;2.50;1.93;;;29.00;65.90;;;;;;4976780;28;20476;-77
2022/07/29 13:42:17;;;;;;;5.37;1.93;;;28.70;66.80;;;;;;4995479;28;20436;-78
2022/07/29 13:44:43;;;;;;;5.80;2.10;;;28.10;67.10;;;;;;4987498;28;20440;-78
2022/07/29 13:47:09;;;;;;;9.80;2.40;;;27.90;67.50;;;;;;4981441;28;20173;-78
2022/07/29 13:49:34;;;;;;;4.50;2.47;;;27.80;68.60;;;;;;4986134;28;20188;-78
2022/07/29 13:52:00;;;;;;;6.63;2.20;;;28.00;68.10;;;;;;4993374;28;20197;-78
2022/07/29 13:54:26;;;;;;;5.50;2.40;;;27.80;68.60;;;;;;4978500;28;20636;-79
2022/07/29 13:56:52;;;;;;;2.10;1.90;;;28.10;69.40;;;;;;4975689;28;20413;-79
2022/07/29 13:59:17;;;;;;;4.40;2.43;;;28.10;69.10;;;;;;4974193;28;20538;-80
2022/07/29 14:01:43;;;;;;;6.30;2.20;;;28.60;67.50;;;;;;4975588;28;20268;-79
2022/07/29 14:04:10;;;;;;;5.47;2.47;;;28.50;68.20;;;;;;4974683;28;20680;-77
2022/07/29 14:06:36;;;;;;;2.93;1.90;;;28.70;67.20;;;;;;4975008;28;20662;-79
2022/07/29 14:09:05;;;;;;;6.47;2.40;;;28.80;67.50;;;;;;4975044;28;20499;-81
2022/07/29 14:11:31;;;;;;;5.00;2.33;;;28.70;67.70;;;;;;4966628;28;20197;-82
2022/07/29 14:13:57;;;;;;;5.87;2.50;;;28.90;67.20;;;;;;4975522;28;21271;-80
2022/07/29 14:16:22;;;;;;;5.50;2.10;;;28.60;67.80;;;;;;4973068;28;20534;-79
2022/07/29 14:18:48;;;;;;;3.27;2.33;;;28.70;67.50;;;;;;4975337;28;20260;-79
2022/07/29 14:21:13;;;;;;;4.43;2.27;;;28.70;68.40;;;;;;4974102;28;20270;-78
2022/07/29 14:23:39;;;;;;;5.93;2.27;;;28.70;68.20;;;;;;4973515;28;20272;-79
2022/07/29 14:26:04;;;;;;;7.97;2.43;;;29.10;66.90;;;;;;4974046;28;20177;-79
2022/07/29 14:28:30;;;;;;;13.13;2.27;;;29.10;66.20;;;;;;4968553;28;20421;-77
2022/07/29 14:30:55;;;;;;;6.33;2.20;;;29.00;68.10;;;;;;4974214;28;20256;-78
2022/07/29 14:33:21;;;;;;;4.73;2.20;;;28.30;68.20;;;;;;4974293;28;20208;-78
2022/07/29 14:35:46;;;;;;;8.73;2.83;;;28.10;68.90;;;;;;4974260;28;20178;-78
2022/07/29 14:38:12;;;;;;;7.87;2.10;;;27.90;69.70;;;;;;4973723;28;20536;-78
2022/07/29 14:40:37;;;;;;;10.07;2.60;;;27.50;69.70;;;;;;4982053;28;20193;-77
2022/07/29 14:43:03;;;;;;;6.57;2.27;;;27.50;70.30;;;;;;4993570;28;20173;-77
2022/07/29 14:45:29;;;;;;;7.50;2.70;;;27.10;70.30;;;;;;4984703;28;20188;-77
2022/07/29 14:47:54;;;;;;;8.70;2.40;;;27.20;70.80;;;;;;4973401;28;20233;-76
2022/07/29 14:50:20;;;;;;;5.03;2.20;;;26.90;70.50;;;;;;4973742;28;20205;-76
2022/07/29 14:52:46;;;;;;;5.97;2.27;;;26.70;70.80;;;;;;4978426;28;20196;-76
2022/07/29 14:55:11;;;;;;;9.53;2.00;;;26.80;70.20;;;;;;4993429;28;20169;-77
2022/07/29 14:57:37;;;;;;;3.97;1.93;;;26.90;70.00;;;;;;4981526;28;20174;-78
2022/07/29 15:00:05;;;;;;;5.77;1.83;;;26.90;70.10;;;;;;4973485;28;20177;-77
2022/07/29 15:02:31;;;;;;;5.50;2.10;;;26.80;71.10;;;;;;4973206;28;20193;-78
2022/07/29 15:04:57;;;;;;;5.40;2.20;;;26.70;71.00;;;;;;4971936;28;20472;-77
2022/07/29 15:07:22;;;;;;;13.77;2.63;;;26.60;71.00;;;;;;4973266;28;20654;-77
2022/07/29 15:09:48;;;;;;;2.20;2.00;;;26.60;71.40;;;;;;4972526;28;20256;-78
2022/07/29 15:12:13;;;;;;;4.33;2.10;;;26.70;71.20;;;;;;4964588;28;20210;-78
2022/07/29 15:14:39;;;;;;;5.40;2.53;;;26.60;70.80;;;;;;4954724;28;20664;-78
2022/07/29 15:17:04;;;;;;;15.43;2.13;;;26.40;71.30;;;;;;4974284;28;20657;-77
2022/07/29 15:19:30;;;;;;;5.97;2.10;;;26.30;70.90;;;;;;4974231;28;20713;-79
2022/07/29 15:21:56;;;;;;;5.57;2.17;;;26.20;71.50;;;;;;4972490;28;20190;-79
2022/07/29 15:24:21;;;;;;;4.67;1.67;;;26.30;71.80;;;;;;4973222;28;20200;-80
2022/07/29 15:26:47;;;;;;;3.53;2.47;;;26.50;70.80;;;;;;4971715;28;20170;-78
2022/07/29 15:29:13;;;;;;;2.80;1.70;;;26.60;70.50;;;;;;4972513;28;20298;-79
2022/07/29 15:31:39;;;;;;;3.97;2.30;;;26.70;70.20;;;;;;4972141;28;20198;-79
2022/07/29 15:34:05;;;;;;;7.60;2.30;;;26.60;70.50;;;;;;4971976;28;21031;-80
2022/07/29 15:36:30;;;;;;;11.60;1.87;;;26.70;71.20;;;;;;4972880;28;20162;-79
2022/07/29 15:38:56;;;;;;;5.13;2.43;;;26.90;73.60;;;;;;4971324;28;20195;-79
2022/07/29 15:41:22;;;;;;;4.00;1.90;;;26.50;75.40;;;;;;4987008;28;20556;-79
2022/07/29 15:43:48;;;;;;;6.60;2.50;;;25.90;78.60;;;;;;4983269;28;20189;-80
2022/07/29 15:49:00;;;;;;;6.67;2.40;;;25.00;82.90;;;;;;4992077;28;20199;-79
2022/07/29 15:51:26;;;;;;;7.13;2.63;;;24.70;83.60;;;;;;4990696;28;20428;-79
2022/07/29 15:53:51;;;;;;;4.00;2.27;;;24.50;84.50;;;;;;4978458;28;20507;-79
2022/07/29 15:56:17;;;;;;;6.87;2.63;;;24.30;84.70;;;;;;4972675;28;20174;-79
2022/07/29 15:58:42;;;;;;;2.40;2.20;;;24.10;86.30;;;;;;4972260;28;20180;-79
2022/07/29 16:01:08;;;;;;;5.20;2.47;;;24.00;86.60;;;;;;4979254;28;20266;-79
2022/07/29 16:03:34;;;;;;;2.77;2.20;;;23.80;87.60;;;;;;4975924;28;20205;-79
2022/07/29 16:05:59;;;;;;;7.10;2.83;;;23.90;87.80;;;;;;4979551;28;20192;-79
2022/07/29 16:08:25;;;;;;;7.17;2.43;;;23.80;88.50;;;;;;4975684;28;20182;-79
2022/07/29 16:10:50;;;;;;;7.00;2.60;;;23.70;88.70;;;;;;4992667;28;20212;-79
2022/07/29 16:13:16;;;;;;;3.43;2.63;;;23.80;89.80;;;;;;4988434;28;20212;-79
2022/07/29 16:15:41;;;;;;;4.43;2.40;;;23.80;89.90;;;;;;4973673;28;20193;-80
2022/07/29 16:18:08;;;;;;;5.77;2.20;;;24.00;89.40;;;;;;4973533;28;20202;-80
2022/07/29 16:31:40;;;;;;;2.20;2.00;;;23.90;90.00;;;;;;5348840;23;20492;-78
2022/07/29 16:34:05;;;;;;;6.97;2.60;;;23.90;89.60;;;;;;4960213;28;20489;-78
2022/07/29 16:36:31;;;;;;;3.20;2.43;;;23.90;90.30;;;;;;4978397;28;20508;-79
2022/07/29 16:38:56;;;;;;;15.10;2.77;;;24.10;90.80;;;;;;4982119;28;20303;-77
2022/07/29 16:41:22;;;;;;;3.90;2.33;;;24.10;88.80;;;;;;4996191;28;20204;-77
2022/07/29 16:43:47;;;;;;;2.67;2.40;;;23.90;89.20;;;;;;4996625;28;20178;-78
2022/07/29 16:46:13;;;;;;;4.90;2.37;;;23.80;90.60;;;;;;4995224;28;20259;-78
2022/07/29 16:48:38;;;;;;;3.63;2.57;;;23.80;90.30;;;;;;4996251;28;20349;-78
2022/07/29 16:51:05;;;;;;;4.50;2.47;;;23.80;90.70;;;;;;4990990;28;20194;-77
2022/07/29 16:53:31;;;;;;;11.40;2.63;;;23.80;90.50;;;;;;4978312;28;20698;-77
2022/07/29 16:55:56;;;;;;;3.00;2.33;;;23.80;89.90;;;;;;4996219;28;20427;-77
2022/07/29 16:58:22;;;;;;;4.43;2.50;;;23.70;90.10;;;;;;4995997;28;20228;-77
2022/07/29 17:00:47;;;;;;;3.90;2.33;;;23.60;90.90;;;;;;4996236;28;20591;-77
2022/07/29 17:03:13;;;;;;;5.87;2.27;;;23.40;91.10;;;;;;4996092;28;20177;-76
2022/07/29 17:05:38;;;;;;;4.87;2.70;;;23.20;92.00;;;;;;4990680;28;20177;-77
2022/07/29 17:08:04;;;;;;;5.43;2.40;;;23.00;93.60;;;;;;4976586;28;20185;-75
2022/07/29 17:10:29;;;;;;;4.07;2.70;;;23.00;94.80;;;;;;4976651;28;20618;-76
2022/07/29 17:12:55;;;;;;;21.03;3.07;;;22.80;94.50;;;;;;4976550;28;20802;-76
2022/07/29 17:15:20;;;;;;;4.97;2.80;;;22.80;95.90;;;;;;4976510;28;20181;-76
2022/07/29 17:17:47;;;;;;;10.73;3.13;;;22.70;96.10;;;;;;4976406;28;20677;-78
2022/07/29 17:20:12;;;;;;;6.57;3.00;;;22.60;96.10;;;;;;4986550;28;20173;-77